createdAt,value
2022-12-26T00:00:51.838Z,1.04
2022-12-26T00:01:51.816Z,1.04
2022-12-26T00:02:52.012Z,1.04
2022-12-26T00:03:52.380Z,1.04
2022-12-26T00:04:53.676Z,1.04
2022-12-26T00:05:52.365Z,1.04
2022-12-26T00:06:52.523Z,1.04
2022-12-26T00:07:52.658Z,1.04
2022-12-26T00:08:52.812Z,1.04
2022-12-26T00:09:52.905Z,1.04
2022-12-26T00:10:53.073Z,1.04
2022-12-26T00:11:53.220Z,1.04
2022-12-26T00:12:53.374Z,1.04
2022-12-26T00:13:53.531Z,1.04
2022-12-26T00:14:53.631Z,1.04
2022-12-26T00:15:53.789Z,1.04
2022-12-26T00:16:53.918Z,1.04
2022-12-26T00:17:54.073Z,1.04
2022-12-26T00:18:54.260Z,1.04
2022-12-26T00:19:54.332Z,1.04
2022-12-26T00:20:54.436Z,1.04
2022-12-26T00:21:54.594Z,1.04
2022-12-26T00:22:54.914Z,1.04
2022-12-26T00:23:54.874Z,1.04
2022-12-26T00:24:55.048Z,1.04
2022-12-26T00:25:55.195Z,1.04
2022-12-26T00:26:55.367Z,1.04
2022-12-26T00:27:55.510Z,1.04
2022-12-26T00:28:55.649Z,1.04
2022-12-26T00:29:55.805Z,1.04
2022-12-26T00:30:55.934Z,1.04
2022-12-26T00:31:56.167Z,1.04
2022-12-26T00:32:56.286Z,1.04
2022-12-26T00:33:56.352Z,1.04
2022-12-26T00:34:56.493Z,1.04
2022-12-26T00:35:56.661Z,1.04
2022-12-26T00:36:56.804Z,1.04
2022-12-26T00:37:56.969Z,1.04
2022-12-26T00:38:57.109Z,1.04
2022-12-26T00:39:57.245Z,1.04
2022-12-26T00:40:57.402Z,1.04
2022-12-26T00:41:57.559Z,1.04
2022-12-26T00:42:57.660Z,1.04
2022-12-26T00:43:57.821Z,1.04
2022-12-26T00:44:57.971Z,1.04
2022-12-26T00:45:58.110Z,1.04
2022-12-26T00:46:58.346Z,1.04
2022-12-26T00:47:58.424Z,1.04
2022-12-26T00:48:58.558Z,1.04
2022-12-26T00:50:11.900Z,1.04
2022-12-26T00:50:58.888Z,1.04
2022-12-26T00:51:59.033Z,1.04
2022-12-26T00:52:59.181Z,1.04
2022-12-26T00:53:59.323Z,1.04
2022-12-26T00:54:59.511Z,1.04
2022-12-26T00:55:59.641Z,1.04
2022-12-26T00:56:59.784Z,1.04
2022-12-26T00:57:59.952Z,1.04
2022-12-26T00:59:00.089Z,1.04
2022-12-26T01:00:00.246Z,1.04
2022-12-26T01:01:00.452Z,1.04
2022-12-26T01:02:00.708Z,1.04
2022-12-26T01:03:00.694Z,1.04
2022-12-26T01:04:00.811Z,1.04
2022-12-26T01:05:00.937Z,1.04
2022-12-26T01:06:01.100Z,1.04
2022-12-26T01:07:01.254Z,1.04
2022-12-26T01:08:20.689Z,1.04
2022-12-26T01:09:01.505Z,1.04
2022-12-26T01:10:01.715Z,1.04
2022-12-26T01:11:01.746Z,1.04
2022-12-26T01:12:01.918Z,1.04
2022-12-26T01:13:02.012Z,1.04
2022-12-26T01:14:02.119Z,1.04
2022-12-26T01:15:02.249Z,1.04
2022-12-26T01:16:02.452Z,1.04
2022-12-26T01:17:02.513Z,1.04
2022-12-26T01:18:02.671Z,1.04
2022-12-26T01:19:02.842Z,1.04
2022-12-26T01:20:02.962Z,1.04
2022-12-26T01:21:03.118Z,1.04
2022-12-26T01:22:03.220Z,1.04
2022-12-26T01:23:03.371Z,1.04
2022-12-26T01:24:03.529Z,1.04
2022-12-26T01:25:03.669Z,1.04
2022-12-26T01:26:16.074Z,1.04
2022-12-26T01:27:03.975Z,1.04
2022-12-26T01:28:04.141Z,1.04
2022-12-26T01:29:04.276Z,1.04
2022-12-26T01:30:04.433Z,1.04
2022-12-26T01:31:04.556Z,1.04
2022-12-26T01:32:04.786Z,1.04
2022-12-26T01:33:04.859Z,1.04
2022-12-26T01:34:05.023Z,1.04
2022-12-26T01:35:05.171Z,1.04
2022-12-26T01:36:05.312Z,1.04
2022-12-26T01:37:05.457Z,1.04
2022-12-26T01:38:05.529Z,1.04
2022-12-26T01:39:05.658Z,1.04
2022-12-26T01:40:05.794Z,1.04
2022-12-26T01:41:05.943Z,1.04
2022-12-26T01:42:06.106Z,1.04
2022-12-26T01:43:06.250Z,1.04
2022-12-26T01:44:06.354Z,1.04
2022-12-26T01:45:06.513Z,1.04
2022-12-26T01:46:06.673Z,1.04
2022-12-26T01:47:06.767Z,1.04
2022-12-26T01:48:06.908Z,1.04
2022-12-26T01:49:07.079Z,1.04
2022-12-26T01:50:07.213Z,1.04
2022-12-26T01:51:07.370Z,1.04
2022-12-26T01:52:07.513Z,1.04
2022-12-26T01:53:07.672Z,1.04
2022-12-26T01:54:38.884Z,1.04
2022-12-26T01:55:07.917Z,1.04
2022-12-26T01:56:08.062Z,1.04
2022-12-26T01:57:08.230Z,1.04
2022-12-26T01:58:08.373Z,1.04
2022-12-26T01:59:08.524Z,1.04
2022-12-26T02:00:08.647Z,1.04
2022-12-26T02:01:08.932Z,1.04
2022-12-26T02:02:09.115Z,1.04
2022-12-26T02:03:09.085Z,1.04
2022-12-26T02:04:09.173Z,1.04
2022-12-26T02:05:09.317Z,1.04
2022-12-26T02:06:09.456Z,1.04
2022-12-26T02:07:09.522Z,1.04
2022-12-26T02:08:09.689Z,1.04
2022-12-26T02:09:09.833Z,1.04
2022-12-26T02:10:09.960Z,1.04
2022-12-26T02:11:10.116Z,1.04
2022-12-26T02:12:33.496Z,1.04
2022-12-26T02:13:10.339Z,1.04
2022-12-26T02:14:10.483Z,1.04
2022-12-26T02:15:10.630Z,1.04
2022-12-26T02:16:10.820Z,1.04
2022-12-26T02:17:10.926Z,1.04
2022-12-26T02:18:11.078Z,1.04
2022-12-26T02:19:11.240Z,1.04
2022-12-26T02:20:11.385Z,1.04
2022-12-26T02:21:11.530Z,1.04
2022-12-26T02:22:11.702Z,1.04
2022-12-26T02:23:11.843Z,1.04
2022-12-26T02:24:11.987Z,1.04
2022-12-26T02:25:12.154Z,1.04
2022-12-26T02:26:12.357Z,1.04
2022-12-26T02:27:13.336Z,1.04
2022-12-26T02:28:12.660Z,1.04
2022-12-26T02:29:12.818Z,1.04
2022-12-26T02:30:12.968Z,1.04
2022-12-26T02:31:13.108Z,1.04
2022-12-26T02:32:13.281Z,1.04
2022-12-26T02:33:13.419Z,1.04
2022-12-26T02:34:13.572Z,1.04
2022-12-26T02:35:13.715Z,1.04
2022-12-26T02:36:13.874Z,1.04
2022-12-26T02:37:13.977Z,1.04
2022-12-26T02:38:14.134Z,1.04
2022-12-26T02:39:43.006Z,1.04
2022-12-26T02:40:14.448Z,1.04
2022-12-26T02:41:14.583Z,1.04
2022-12-26T02:42:14.748Z,1.04
2022-12-26T02:43:14.889Z,1.04
2022-12-26T02:44:15.033Z,1.04
2022-12-26T02:45:15.183Z,1.04
2022-12-26T02:46:15.339Z,1.04
2022-12-26T02:47:15.447Z,1.04
2022-12-26T02:48:15.543Z,1.04
2022-12-26T02:49:15.686Z,1.04
2022-12-26T02:50:15.836Z,1.04
2022-12-26T02:51:15.998Z,1.04
2022-12-26T02:52:16.155Z,1.04
2022-12-26T02:53:16.302Z,1.04
2022-12-26T02:54:16.471Z,1.04
2022-12-26T02:55:16.608Z,1.04
2022-12-26T02:56:16.758Z,1.04
2022-12-26T02:57:16.926Z,1.04
2022-12-26T02:58:17.075Z,1.04
2022-12-26T02:59:17.216Z,1.04
2022-12-26T03:00:17.358Z,1.04
2022-12-26T03:01:17.591Z,1.04
2022-12-26T03:02:17.759Z,1.04
2022-12-26T03:03:17.832Z,1.04
2022-12-26T03:04:17.960Z,1.04
2022-12-26T03:05:18.047Z,1.04
2022-12-26T03:06:18.235Z,1.04
2022-12-26T03:07:18.325Z,1.04
2022-12-26T03:08:18.469Z,1.04
2022-12-26T03:09:18.629Z,1.04
2022-12-26T03:10:18.777Z,1.04
2022-12-26T03:11:18.926Z,1.04
2022-12-26T03:12:19.029Z,1.04
2022-12-26T03:13:19.187Z,1.04
2022-12-26T03:14:19.331Z,1.04
2022-12-26T03:15:19.479Z,1.04
2022-12-26T03:16:19.664Z,1.04
2022-12-26T03:17:19.756Z,1.04
2022-12-26T03:18:19.893Z,1.04
2022-12-26T03:19:20.031Z,1.04
2022-12-26T03:20:20.194Z,1.04
2022-12-26T03:21:20.350Z,1.04
2022-12-26T03:22:20.501Z,1.04
2022-12-26T03:23:20.637Z,1.04
2022-12-26T03:24:20.792Z,1.04
2022-12-26T03:25:20.940Z,1.04
2022-12-26T03:26:21.106Z,1.04
2022-12-26T03:27:21.247Z,1.04
2022-12-26T03:28:21.402Z,1.04
2022-12-26T03:29:21.547Z,1.04
2022-12-26T03:30:21.644Z,1.04
2022-12-26T03:31:21.817Z,1.04
2022-12-26T03:32:21.888Z,1.04
2022-12-26T03:33:21.989Z,1.04
2022-12-26T03:34:22.127Z,1.04
2022-12-26T03:35:22.314Z,1.04
2022-12-26T03:36:22.444Z,1.04
2022-12-26T03:37:22.603Z,1.04
2022-12-26T03:38:22.753Z,1.04
2022-12-26T03:39:22.899Z,1.04
2022-12-26T03:40:23.041Z,1.04
2022-12-26T03:41:23.190Z,1.04
2022-12-26T03:42:23.389Z,1.04
2022-12-26T03:43:23.505Z,1.04
2022-12-26T03:44:23.670Z,1.04
2022-12-26T03:45:23.857Z,1.04
2022-12-26T03:46:24.019Z,1.04
2022-12-26T03:47:24.032Z,1.04
2022-12-26T03:48:24.185Z,1.04
2022-12-26T03:49:24.349Z,1.04
2022-12-26T03:50:24.492Z,1.04
2022-12-26T03:51:24.642Z,1.04
2022-12-26T03:52:24.778Z,1.04
2022-12-26T03:53:24.948Z,1.04
2022-12-26T03:54:25.056Z,1.04
2022-12-26T03:55:25.189Z,1.04
2022-12-26T03:56:25.367Z,1.04
2022-12-26T03:57:25.499Z,1.04
2022-12-26T03:58:25.661Z,1.04
2022-12-26T03:59:25.763Z,1.04
2022-12-26T04:00:25.913Z,1.04
2022-12-26T04:01:26.120Z,1.04
2022-12-26T04:02:26.309Z,1.04
2022-12-26T04:03:26.403Z,1.04
2022-12-26T04:04:26.509Z,1.04
2022-12-26T04:05:26.677Z,1.04
2022-12-26T04:06:26.811Z,1.04
2022-12-26T04:07:26.979Z,1.04
2022-12-26T04:08:27.081Z,1.04
2022-12-26T04:09:27.232Z,1.04
2022-12-26T04:10:27.374Z,1.04
2022-12-26T04:11:27.528Z,1.04
2022-12-26T04:12:27.676Z,1.04
2022-12-26T04:13:27.817Z,1.04
2022-12-26T04:14:27.971Z,1.04
2022-12-26T04:15:28.161Z,1.04
2022-12-26T04:16:28.264Z,1.04
2022-12-26T04:17:28.415Z,1.04
2022-12-26T04:18:28.584Z,1.04
2022-12-26T04:19:28.717Z,1.04
2022-12-26T04:20:28.888Z,1.04
2022-12-26T04:21:29.038Z,1.04
2022-12-26T04:22:29.188Z,1.04
2022-12-26T04:23:29.346Z,1.04
2022-12-26T04:24:29.497Z,1.04
2022-12-26T04:25:48.312Z,1.04
2022-12-26T04:26:29.745Z,1.04
2022-12-26T04:27:29.891Z,1.04
2022-12-26T04:28:30.047Z,1.04
2022-12-26T04:29:30.190Z,1.04
2022-12-26T04:30:30.320Z,1.04
2022-12-26T04:31:30.565Z,1.04
2022-12-26T04:32:30.651Z,1.04
2022-12-26T04:33:30.803Z,1.04
2022-12-26T04:34:30.947Z,1.04
2022-12-26T04:35:31.102Z,1.04
2022-12-26T04:36:31.200Z,1.04
2022-12-26T04:37:31.304Z,1.04
2022-12-26T04:38:31.470Z,1.04
2022-12-26T04:39:31.610Z,1.04
2022-12-26T04:40:31.795Z,1.04
2022-12-26T04:41:31.901Z,1.04
2022-12-26T04:42:32.020Z,1.04
2022-12-26T04:43:47.887Z,1.04
2022-12-26T04:44:32.309Z,1.04
2022-12-26T04:45:32.448Z,1.04
2022-12-26T04:46:32.696Z,1.04
2022-12-26T04:47:32.773Z,1.04
2022-12-26T04:48:32.885Z,1.04
2022-12-26T04:49:33.022Z,1.04
2022-12-26T04:50:33.152Z,1.04
2022-12-26T04:51:33.269Z,1.04
2022-12-26T04:52:33.432Z,1.04
2022-12-26T04:53:33.506Z,1.04
2022-12-26T04:54:33.699Z,1.04
2022-12-26T04:55:33.868Z,1.04
2022-12-26T04:56:33.975Z,1.04
2022-12-26T04:57:34.130Z,1.04
2022-12-26T04:58:34.292Z,1.04
2022-12-26T04:59:34.439Z,1.04
2022-12-26T05:00:34.531Z,1.04
2022-12-26T05:01:34.819Z,1.04
2022-12-26T05:02:35.055Z,1.04
2022-12-26T05:03:34.962Z,1.04
2022-12-26T05:04:35.094Z,1.04
2022-12-26T05:05:35.242Z,1.04
2022-12-26T05:06:35.402Z,1.04
2022-12-26T05:07:35.548Z,1.04
2022-12-26T05:08:35.666Z,1.04
2022-12-26T05:09:35.819Z,1.04
2022-12-26T05:10:35.889Z,1.04
2022-12-26T05:11:36.058Z,1.04
2022-12-26T05:12:36.192Z,1.04
2022-12-26T05:13:36.421Z,1.04
2022-12-26T05:14:36.520Z,1.04
2022-12-26T05:15:36.722Z,1.04
2022-12-26T05:16:36.768Z,1.04
2022-12-26T05:17:36.914Z,1.04
2022-12-26T05:18:37.066Z,1.04
2022-12-26T05:19:37.214Z,1.04
2022-12-26T05:20:37.369Z,1.04
2022-12-26T05:21:37.518Z,1.04
2022-12-26T05:22:37.673Z,1.04
2022-12-26T05:23:37.825Z,1.04
2022-12-26T05:24:37.958Z,1.04
2022-12-26T05:25:38.160Z,1.04
2022-12-26T05:26:38.267Z,1.04
2022-12-26T05:27:38.419Z,1.04
2022-12-26T05:28:38.579Z,1.04
2022-12-26T05:29:38.731Z,1.04
2022-12-26T05:30:38.879Z,1.04
2022-12-26T05:31:39.142Z,1.04
2022-12-26T05:32:39.136Z,1.04
2022-12-26T05:33:39.249Z,1.04
2022-12-26T05:34:39.384Z,1.04
2022-12-26T05:35:39.494Z,1.04
2022-12-26T05:36:39.654Z,1.04
2022-12-26T05:37:39.789Z,1.04
2022-12-26T05:38:39.945Z,1.04
2022-12-26T05:39:40.094Z,1.04
2022-12-26T05:40:40.248Z,1.04
2022-12-26T05:41:40.419Z,1.04
2022-12-26T05:42:40.529Z,1.04
2022-12-26T05:43:40.718Z,1.04
2022-12-26T05:44:40.826Z,1.04
2022-12-26T05:45:40.885Z,1.04
2022-12-26T05:46:41.030Z,1.04
2022-12-26T05:47:41.110Z,1.04
2022-12-26T05:48:41.273Z,1.04
2022-12-26T05:49:41.396Z,1.04
2022-12-26T05:50:41.551Z,1.04
2022-12-26T05:51:41.661Z,1.04
2022-12-26T05:52:41.820Z,1.04
2022-12-26T05:53:41.987Z,1.04
2022-12-26T05:54:42.128Z,1.04
2022-12-26T05:55:42.273Z,1.04
2022-12-26T05:56:47.523Z,1.04
2022-12-26T05:57:42.516Z,1.04
2022-12-26T05:58:42.684Z,1.04
2022-12-26T05:59:42.819Z,1.04
2022-12-26T06:00:42.913Z,1.04
2022-12-26T06:01:43.098Z,1.04
2022-12-26T06:02:43.149Z,1.04
2022-12-26T06:03:43.514Z,1.04
2022-12-26T06:04:43.425Z,1.04
2022-12-26T06:05:43.566Z,1.04
2022-12-26T06:06:43.684Z,1.04
2022-12-26T06:07:43.843Z,1.04
2022-12-26T06:08:43.994Z,1.04
2022-12-26T06:09:44.131Z,1.04
2022-12-26T06:10:44.303Z,1.04
2022-12-26T06:11:48.656Z,1.04
2022-12-26T06:12:44.599Z,1.04
2022-12-26T06:13:44.729Z,1.04
2022-12-26T06:14:44.897Z,1.04
2022-12-26T06:15:45.060Z,1.04
2022-12-26T06:16:45.181Z,1.04
2022-12-26T06:17:45.288Z,1.04
2022-12-26T06:18:45.397Z,1.04
2022-12-26T06:19:46.968Z,1.04
2022-12-26T06:20:45.713Z,1.04
2022-12-26T06:21:45.851Z,1.04
2022-12-26T06:22:46.008Z,1.04
2022-12-26T06:23:46.162Z,1.04
2022-12-26T06:24:46.351Z,2
2022-12-26T06:25:46.430Z,2
2022-12-26T06:26:46.645Z,2
2022-12-26T06:27:46.805Z,2
2022-12-26T06:28:46.934Z,3.04
2022-12-26T06:29:47.037Z,3.04
2022-12-26T06:30:47.165Z,4
2022-12-26T06:31:47.469Z,4
2022-12-26T06:32:47.479Z,5.04
2022-12-26T06:33:47.629Z,6
2022-12-26T06:34:47.769Z,6
2022-12-26T06:35:47.912Z,7.04
2022-12-26T06:36:48.092Z,9.04
2022-12-26T06:37:48.220Z,10
2022-12-26T06:38:48.392Z,12
2022-12-26T06:39:48.539Z,13.04
2022-12-26T06:40:48.686Z,16
2022-12-26T06:41:48.821Z,18
2022-12-26T06:42:49.038Z,22
2022-12-26T06:43:49.165Z,26
2022-12-26T06:44:49.334Z,31.04
2022-12-26T06:45:49.468Z,36
2022-12-26T06:46:49.752Z,42
2022-12-26T06:47:49.751Z,48
2022-12-26T06:48:49.903Z,54
2022-12-26T06:49:50.046Z,62
2022-12-26T06:50:50.213Z,69.04
2022-12-26T06:51:50.350Z,80
2022-12-26T06:52:50.493Z,89.04
2022-12-26T06:53:50.658Z,104
2022-12-26T06:54:50.812Z,116
2022-12-26T06:55:50.907Z,129.04
2022-12-26T06:56:51.066Z,147.04
2022-12-26T06:57:51.211Z,163.04
2022-12-26T06:58:51.384Z,185.12
2022-12-26T06:59:51.516Z,204
2022-12-26T07:00:51.685Z,224
2022-12-26T07:01:51.962Z,247.04
2022-12-26T07:02:51.938Z,274.08
2022-12-26T07:03:52.222Z,296
2022-12-26T07:04:52.217Z,320
2022-12-26T07:05:52.374Z,353.28
2022-12-26T07:06:52.530Z,380.16
2022-12-26T07:07:52.682Z,410.24
2022-12-26T07:08:52.850Z,445.12
2022-12-26T07:09:52.965Z,476.16
2022-12-26T07:10:53.133Z,512
2022-12-26T07:11:53.292Z,545.28
2022-12-26T07:12:53.442Z,595.2
2022-12-26T07:13:53.542Z,628.16
2022-12-26T07:14:58.027Z,664.32
2022-12-26T07:15:53.866Z,703.36
2022-12-26T07:16:54.002Z,733.44
2022-12-26T07:17:54.049Z,761.6
2022-12-26T07:18:54.195Z,787.2
2022-12-26T07:19:54.347Z,815.36
2022-12-26T07:20:54.497Z,840.32
2022-12-26T07:21:54.640Z,868.48
2022-12-26T07:22:54.761Z,899.2
2022-12-26T07:23:54.890Z,922.24
2022-12-26T07:24:55.065Z,957.44
2022-12-26T07:25:55.200Z,989.44
2022-12-26T07:26:55.348Z,1019.52
2022-12-26T07:27:55.503Z,1056
2022-12-26T07:28:55.669Z,1086.08
2022-12-26T07:29:55.831Z,1119.36
2022-12-26T07:30:55.944Z,1167.36
2022-12-26T07:31:56.209Z,1202.56
2022-12-26T07:32:56.215Z,1248
2022-12-26T07:33:56.293Z,1279.36
2022-12-26T07:34:56.458Z,1396.48
2022-12-26T07:35:56.628Z,1498.88
2022-12-26T07:36:56.753Z,1587.2
2022-12-26T07:37:56.922Z,1697.28
2022-12-26T07:38:57.098Z,1908.48
2022-12-26T07:39:59.301Z,2120.96
2022-12-26T07:40:57.370Z,2305.28
2022-12-26T07:41:57.561Z,2451.2
2022-12-26T07:42:57.681Z,2567.68
2022-12-26T07:43:57.858Z,2652.16
2022-12-26T07:44:57.998Z,2597.12
2022-12-26T07:45:58.176Z,2490.88
2022-12-26T07:46:58.248Z,2362.88
2022-12-26T07:47:58.405Z,2400
2022-12-26T07:48:58.541Z,2520.32
2022-12-26T07:49:58.693Z,2716.16
2022-12-26T07:50:58.840Z,2885.12
2022-12-26T07:51:58.995Z,3217.92
2022-12-26T07:52:59.150Z,3379.2
2022-12-26T07:53:59.288Z,3891.2
2022-12-26T07:54:59.473Z,4416
2022-12-26T07:55:59.555Z,4218.88
2022-12-26T07:57:15.389Z,4142.08
2022-12-26T07:57:59.850Z,4247.04
2022-12-26T07:59:00.000Z,3914.24
2022-12-26T08:00:00.151Z,3840
2022-12-26T08:01:00.331Z,3722.24
2022-12-26T08:02:00.501Z,3589.12
2022-12-26T08:03:06.717Z,3089.92
2022-12-26T08:04:00.754Z,2586.88
2022-12-26T08:05:00.954Z,2447.36
2022-12-26T08:06:00.995Z,2440.96
2022-12-26T08:07:01.167Z,2566.4
2022-12-26T08:08:01.327Z,2769.92
2022-12-26T08:09:01.424Z,2877.44
2022-12-26T08:10:01.579Z,2844.16
2022-12-26T08:11:01.697Z,2698.24
2022-12-26T08:12:01.846Z,2615.04
2022-12-26T08:13:01.964Z,2621.44
2022-12-26T08:14:02.141Z,2592
2022-12-26T08:15:02.268Z,2540.8
2022-12-26T08:16:02.377Z,2272
2022-12-26T08:17:02.568Z,1986.56
2022-12-26T08:18:02.677Z,1739.52
2022-12-26T08:19:02.837Z,1516.8
2022-12-26T08:20:03.005Z,1432.32
2022-12-26T08:21:03.128Z,1429.76
2022-12-26T08:22:03.280Z,1482.24
2022-12-26T08:23:03.386Z,1583.36
2022-12-26T08:24:03.534Z,1725.44
2022-12-26T08:25:03.703Z,1922.56
2022-12-26T08:26:03.835Z,2080
2022-12-26T08:27:03.985Z,2255.36
2022-12-26T08:28:04.135Z,2420.48
2022-12-26T08:29:04.294Z,2618.88
2022-12-26T08:30:04.443Z,2685.44
2022-12-26T08:31:04.619Z,2731.52
2022-12-26T08:32:04.752Z,2890.24
2022-12-26T08:33:04.902Z,3130.88
2022-12-26T08:34:05.040Z,3368.96
2022-12-26T08:35:05.195Z,3627.52
2022-12-26T08:36:05.396Z,3962.88
2022-12-26T08:37:05.502Z,4298.24
2022-12-26T08:38:05.668Z,4659.2
2022-12-26T08:39:05.790Z,5002.24
2022-12-26T08:40:05.946Z,5232.64
2022-12-26T08:41:06.080Z,5232.64
2022-12-26T08:42:06.210Z,4992
2022-12-26T08:43:21.259Z,4951.04
2022-12-26T08:44:28.606Z,5117.44
2022-12-26T08:45:06.611Z,5376
2022-12-26T08:46:06.805Z,5683.2
2022-12-26T08:47:06.912Z,5918.72
2022-12-26T08:48:07.075Z,6179.84
2022-12-26T08:49:07.231Z,6466.56
2022-12-26T08:50:07.382Z,6635.52
2022-12-26T08:51:07.537Z,6809.6
2022-12-26T08:52:07.672Z,7014.4
2022-12-26T08:53:07.808Z,7239.68
2022-12-26T08:54:07.949Z,7546.88
2022-12-26T08:55:08.099Z,7557.12
2022-12-26T08:56:08.239Z,7393.28
2022-12-26T08:57:08.378Z,7270.4
2022-12-26T08:58:08.578Z,7290.88
2022-12-26T08:59:08.676Z,7546.88
2022-12-26T09:00:08.863Z,20520.96
2022-12-26T09:01:09.158Z,6712.32
2022-12-26T09:02:09.285Z,7480.32
2022-12-26T09:03:09.208Z,9180.16
2022-12-26T09:04:09.305Z,11448.319
2022-12-26T09:05:09.449Z,14397.439
2022-12-26T09:06:09.594Z,15800.319
2022-12-26T09:07:09.757Z,21135.36
2022-12-26T09:08:09.911Z,36311.04
2022-12-26T09:09:10.055Z,31191.04
2022-12-26T09:10:10.164Z,23040
2022-12-26T09:11:10.291Z,48455.68
2022-12-26T09:12:10.451Z,35696.64
2022-12-26T09:13:10.596Z,17203.2
2022-12-26T09:14:10.720Z,17438.72
2022-12-26T09:15:10.817Z,16762.88
2022-12-26T09:16:10.967Z,16128
2022-12-26T09:17:11.134Z,15933.439
2022-12-26T09:18:11.259Z,17438.72
2022-12-26T09:19:11.424Z,16435.2
2022-12-26T09:20:11.575Z,15390.72
2022-12-26T09:21:11.723Z,12892.16
2022-12-26T09:22:11.883Z,13424.64
2022-12-26T09:23:12.008Z,14888.96
2022-12-26T09:24:12.179Z,14397.439
2022-12-26T09:25:12.373Z,13096.96
2022-12-26T09:26:12.526Z,11427.84
2022-12-26T09:27:12.682Z,11550.72
2022-12-26T09:28:12.821Z,10234.88
2022-12-26T09:29:12.981Z,9594.88
2022-12-26T09:30:13.072Z,8960
2022-12-26T09:31:13.264Z,8028.16
2022-12-26T09:32:13.319Z,6594.56
2022-12-26T09:33:13.492Z,5867.52
2022-12-26T09:34:13.630Z,5340.16
2022-12-26T09:35:14.167Z,5012.48
2022-12-26T09:36:15.000Z,5288.96
2022-12-26T09:37:14.512Z,5754.88
2022-12-26T09:38:14.265Z,6195.2
2022-12-26T09:39:14.331Z,6113.28
2022-12-26T09:40:14.464Z,5442.56
2022-12-26T09:41:14.603Z,4858.88
2022-12-26T09:42:14.749Z,4375.04
2022-12-26T09:43:14.905Z,3965.44
2022-12-26T09:44:15.048Z,3576.32
2022-12-26T09:45:15.201Z,3512.32
2022-12-26T09:46:15.402Z,3819.52
2022-12-26T09:47:15.460Z,4390.4
2022-12-26T09:48:15.624Z,4753.92
2022-12-26T09:49:15.765Z,4869.12
2022-12-26T09:50:15.906Z,4728.32
2022-12-26T09:51:16.067Z,4533.76
2022-12-26T09:52:16.150Z,4316.16
2022-12-26T09:53:16.309Z,4101.12
2022-12-26T09:54:16.430Z,3819.52
2022-12-26T09:55:16.595Z,3640.32
2022-12-26T09:56:36.809Z,3489.28
2022-12-26T09:57:16.829Z,3287.04
2022-12-26T09:58:16.979Z,3064.32
2022-12-26T09:59:17.148Z,2859.52
2022-12-26T10:00:17.228Z,2609.92
2022-12-26T10:01:17.481Z,2302.72
2022-12-26T10:02:17.559Z,2205.44
2022-12-26T10:03:17.649Z,2501.12
2022-12-26T10:04:17.790Z,2551.04
2022-12-26T10:05:17.950Z,2428.16
2022-12-26T10:06:18.096Z,2453.76
2022-12-26T10:07:18.336Z,2533.12
2022-12-26T10:08:18.442Z,2592
2022-12-26T10:09:18.548Z,2675.2
2022-12-26T10:10:18.653Z,2759.68
2022-12-26T10:11:18.781Z,2892.8
2022-12-26T10:12:18.893Z,3013.12
2022-12-26T10:13:19.034Z,3138.56
2022-12-26T10:14:21.516Z,3328
2022-12-26T10:15:19.354Z,3512.32
2022-12-26T10:16:19.541Z,3727.36
2022-12-26T10:17:19.598Z,3973.12
2022-12-26T10:18:19.709Z,4221.44
2022-12-26T10:19:19.891Z,4751.36
2022-12-26T10:20:19.983Z,5235.2
2022-12-26T10:21:20.091Z,5601.28
2022-12-26T10:22:20.229Z,5985.28
2022-12-26T10:23:20.391Z,6266.88
2022-12-26T10:24:20.543Z,6451.2
2022-12-26T10:25:20.652Z,6533.12
2022-12-26T10:26:20.807Z,6389.76
2022-12-26T10:27:20.984Z,6031.36
2022-12-26T10:28:21.119Z,5703.68
2022-12-26T10:29:21.279Z,5360.64
2022-12-26T10:30:21.428Z,5089.28
2022-12-26T10:31:21.621Z,4974.08
2022-12-26T10:32:26.046Z,4853.76
2022-12-26T10:33:21.885Z,4695.04
2022-12-26T10:34:22.062Z,4551.68
2022-12-26T10:35:22.185Z,4300.8
2022-12-26T10:36:22.320Z,4280.32
2022-12-26T10:37:22.486Z,4490.24
2022-12-26T10:38:25.795Z,4817.92
2022-12-26T10:39:22.795Z,5025.28
2022-12-26T10:40:22.941Z,5158.4
2022-12-26T10:41:23.085Z,5237.76
2022-12-26T10:42:23.234Z,5030.4
2022-12-26T10:43:23.392Z,4861.44
2022-12-26T10:44:27.488Z,5099.52
2022-12-26T10:45:23.689Z,5672.96
2022-12-26T10:46:23.857Z,6144
2022-12-26T10:47:23.996Z,5857.28
2022-12-26T10:48:24.163Z,5457.92
2022-12-26T10:49:24.286Z,5132.8
2022-12-26T10:50:27.521Z,5094.4
2022-12-26T10:51:24.619Z,5406.72
2022-12-26T10:52:24.686Z,6005.76
2022-12-26T10:53:24.874Z,6625.28
2022-12-26T10:54:25.002Z,7224.32
2022-12-26T10:55:27.844Z,7444.48
2022-12-26T10:56:25.314Z,7659.52
2022-12-26T10:57:25.465Z,8258.56
2022-12-26T10:58:25.625Z,8842.24
2022-12-26T10:59:25.798Z,9451.52
2022-12-26T11:00:25.906Z,10168.319
2022-12-26T11:01:26.119Z,10782.72
2022-12-26T11:02:26.300Z,11212.8
2022-12-26T11:03:26.428Z,11571.2
2022-12-26T11:04:44.909Z,11919.359
2022-12-26T11:05:48.745Z,12206.08
2022-12-26T11:06:26.734Z,12052.479
2022-12-26T11:07:26.883Z,11714.56
2022-12-26T11:08:27.044Z,11048.96
2022-12-26T11:09:27.177Z,10752
2022-12-26T11:10:27.276Z,10516.479
2022-12-26T11:11:27.414Z,10035.2
2022-12-26T11:12:27.542Z,10030.08
2022-12-26T11:13:27.690Z,10091.52
2022-12-26T11:14:31.784Z,9236.479
2022-12-26T11:15:27.936Z,8668.16
2022-12-26T11:16:28.180Z,8299.52
2022-12-26T11:17:28.237Z,7546.88
2022-12-26T11:18:28.399Z,6748.16
2022-12-26T11:19:28.549Z,5847.04
2022-12-26T11:20:28.712Z,5396.48
2022-12-26T11:21:28.863Z,5058.56
2022-12-26T11:22:29.008Z,4628.48
2022-12-26T11:23:29.172Z,4170.24
2022-12-26T11:24:29.298Z,3543.04
2022-12-26T11:25:29.437Z,2959.36
2022-12-26T11:26:29.570Z,2816
2022-12-26T11:27:29.704Z,2880
2022-12-26T11:28:29.882Z,3048.96
2022-12-26T11:29:30.005Z,3138.56
2022-12-26T11:30:30.144Z,3069.44
2022-12-26T11:31:30.367Z,3041.28
2022-12-26T11:32:30.463Z,3187.2
2022-12-26T11:33:30.606Z,3607.04
2022-12-26T11:34:30.767Z,4239.36
2022-12-26T11:35:30.910Z,4500.48
2022-12-26T11:36:31.139Z,4582.4
2022-12-26T11:37:31.168Z,4736
2022-12-26T11:38:31.328Z,4853.76
2022-12-26T11:39:31.467Z,4856.32
2022-12-26T11:40:31.587Z,4856.32
2022-12-26T11:41:31.777Z,4838.4
2022-12-26T11:42:31.944Z,4746.24
2022-12-26T11:43:32.086Z,4602.88
2022-12-26T11:44:32.244Z,4416
2022-12-26T11:45:37.170Z,4124.16
2022-12-26T11:46:32.543Z,3991.04
2022-12-26T11:47:32.657Z,4075.52
2022-12-26T11:48:32.790Z,4300.8
2022-12-26T11:49:32.897Z,4387.84
2022-12-26T11:50:33.035Z,4467.2
2022-12-26T11:51:33.182Z,4536.32
2022-12-26T11:52:33.338Z,4462.08
2022-12-26T11:53:33.488Z,4065.28
2022-12-26T11:54:33.674Z,3781.12
2022-12-26T11:55:33.774Z,3578.88
2022-12-26T11:56:33.893Z,3445.76
2022-12-26T11:57:34.065Z,3484.16
2022-12-26T11:58:34.191Z,3550.72
2022-12-26T11:59:34.345Z,3399.68
2022-12-26T12:00:34.489Z,3102.72
2022-12-26T12:01:34.713Z,2795.52
2022-12-26T12:02:34.830Z,2659.84
2022-12-26T12:03:35.009Z,2588.16
2022-12-26T12:04:35.153Z,2534.4
2022-12-26T12:05:35.267Z,2426.88
2022-12-26T12:06:35.401Z,2204.16
2022-12-26T12:07:35.560Z,1964.8
2022-12-26T12:08:35.721Z,1870.08
2022-12-26T12:09:35.876Z,2000.64
2022-12-26T12:10:36.031Z,2250.24
2022-12-26T12:11:36.153Z,2769.92
2022-12-26T12:12:36.331Z,3148.8
2022-12-26T12:13:36.430Z,3292.16
2022-12-26T12:14:36.571Z,3297.28
2022-12-26T12:15:36.673Z,3409.92
2022-12-26T12:16:36.858Z,3678.72
2022-12-26T12:17:36.981Z,4139.52
2022-12-26T12:18:37.120Z,3760.64
2022-12-26T12:19:37.285Z,3233.28
2022-12-26T12:20:37.434Z,2831.36
2022-12-26T12:21:37.600Z,2099.2
2022-12-26T12:22:37.740Z,1806.08
2022-12-26T12:23:37.873Z,1815.04
2022-12-26T12:24:37.983Z,1756.16
2022-12-26T12:25:38.150Z,1642.24
2022-12-26T12:26:38.302Z,1469.44
2022-12-26T12:27:38.450Z,1502.72
2022-12-26T12:28:38.581Z,1510.4
2022-12-26T12:29:38.776Z,1570.56
2022-12-26T12:30:38.897Z,1845.76
2022-12-26T12:31:39.076Z,1799.68
2022-12-26T12:32:39.209Z,1657.6
2022-12-26T12:33:39.339Z,1464.32
2022-12-26T12:34:39.442Z,1527.04
2022-12-26T12:35:39.595Z,1623.04
2022-12-26T12:36:39.760Z,1287.04
2022-12-26T12:37:39.913Z,1218.56
2022-12-26T12:38:40.041Z,1352.96
2022-12-26T12:39:40.212Z,1410.56
2022-12-26T12:40:40.368Z,1150.08
2022-12-26T12:41:40.471Z,1194.24
2022-12-26T12:42:40.610Z,1422.08
2022-12-26T12:43:40.749Z,1338.88
2022-12-26T12:44:40.860Z,1253.12
2022-12-26T12:45:41.031Z,1122.56
2022-12-26T12:46:41.104Z,1143.04
2022-12-26T12:47:41.213Z,1009.28
2022-12-26T12:48:41.376Z,834.56
2022-12-26T12:49:41.550Z,647.04
2022-12-26T12:50:41.681Z,580.16